createdAt,value
2018-09-30T00:00:16.617Z,2.84
2018-09-30T00:01:16.663Z,2.79
2018-09-30T00:02:16.925Z,2.78
2018-09-30T00:03:17.461Z,2.72
2018-09-30T00:04:16.733Z,2.71
2018-09-30T00:05:17.005Z,2.69
2018-09-30T00:06:16.266Z,2.65
2018-09-30T00:07:16.553Z,2.65
2018-09-30T00:08:16.821Z,2.65
2018-09-30T00:09:17.091Z,2.68
2018-09-30T00:10:16.369Z,2.68
2018-09-30T00:11:16.447Z,2.75
2018-09-30T00:12:16.709Z,2.75
2018-09-30T00:13:16.981Z,2.79
2018-09-30T00:14:16.251Z,2.82
2018-09-30T00:15:16.538Z,2.81
2018-09-30T00:16:16.800Z,2.71
2018-09-30T00:17:17.126Z,2.71
2018-09-30T00:18:16.417Z,2.71
2018-09-30T00:19:16.686Z,2.71
2018-09-30T00:20:16.961Z,2.76
2018-09-30T00:21:17.021Z,2.76
2018-09-30T00:22:16.296Z,2.72
2018-09-30T00:23:16.565Z,2.71
2018-09-30T00:24:17.114Z,2.63
2018-09-30T00:25:16.404Z,2.61
2018-09-30T00:26:16.683Z,2.63
2018-09-30T00:27:16.956Z,2.61
2018-09-30T00:28:16.217Z,2.61
2018-09-30T00:29:16.482Z,2.58
2018-09-30T00:30:16.762Z,2.57
2018-09-30T00:31:16.797Z,2.57
2018-09-30T00:32:17.066Z,2.58
2018-09-30T00:33:16.352Z,2.61
2018-09-30T00:34:16.625Z,2.60
2018-09-30T00:35:16.901Z,2.60
2018-09-30T00:36:17.205Z,2.63
2018-09-30T00:37:16.657Z,2.64
2018-09-30T00:38:16.930Z,2.61
2018-09-30T00:39:17.467Z,2.60
2018-09-30T00:40:16.751Z,2.58
2018-09-30T00:41:16.781Z,2.65
2018-09-30T00:42:17.060Z,2.67
2018-09-30T00:43:16.331Z,2.67
2018-09-30T00:44:16.599Z,2.69
2018-09-30T00:45:16.881Z,2.69
2018-09-30T00:46:17.165Z,2.67
2018-09-30T00:47:16.445Z,2.65
2018-09-30T00:48:16.711Z,2.64
2018-09-30T00:49:16.978Z,2.58
2018-09-30T00:50:16.281Z,2.63
2018-09-30T00:51:16.291Z,2.63
2018-09-30T00:52:16.569Z,2.61
2018-09-30T00:53:16.829Z,2.63
2018-09-30T00:54:17.249Z,2.60
2018-09-30T00:55:16.523Z,2.61
2018-09-30T00:56:16.797Z,2.55
2018-09-30T00:57:17.069Z,2.54
2018-09-30T00:58:16.340Z,2.54
2018-09-30T00:59:16.616Z,2.58
2018-09-30T01:00:17.029Z,2.55
2018-09-30T01:01:16.944Z,2.55
2018-09-30T01:02:16.214Z,2.55
2018-09-30T01:03:16.537Z,2.54
2018-09-30T01:04:16.845Z,2.47
2018-09-30T01:05:17.397Z,2.47
2018-09-30T01:06:16.669Z,2.40
2018-09-30T01:07:16.931Z,2.37
2018-09-30T01:08:17.202Z,2.37
2018-09-30T01:09:16.474Z,2.36
2018-09-30T01:10:16.764Z,2.40
2018-09-30T01:11:16.790Z,2.40
2018-09-30T01:12:17.060Z,2.37
2018-09-30T01:13:16.329Z,2.36
2018-09-30T01:14:16.596Z,2.30
2018-09-30T01:15:16.866Z,2.32
2018-09-30T01:16:17.138Z,2.27
2018-09-30T01:17:16.412Z,2.29
2018-09-30T01:18:16.689Z,2.30
2018-09-30T01:19:16.966Z,2.29
2018-09-30T01:20:16.245Z,2.30
2018-09-30T01:21:16.561Z,2.29
2018-09-30T01:22:16.839Z,2.24
2018-09-30T01:23:17.108Z,2.24
2018-09-30T01:24:16.385Z,2.20
2018-09-30T01:25:16.653Z,2.19
2018-09-30T01:26:16.919Z,2.14
2018-09-30T01:27:17.195Z,2.14
2018-09-30T01:28:16.465Z,2.12
2018-09-30T01:29:16.733Z,2.07
2018-09-30T01:30:17.010Z,2.07
2018-09-30T01:31:17.135Z,2.02
2018-09-30T01:32:16.418Z,2.02
2018-09-30T01:33:16.686Z,1.98
2018-09-30T01:34:16.963Z,1.95
2018-09-30T01:35:16.240Z,1.93
2018-09-30T01:36:16.523Z,1.93
2018-09-30T01:37:16.789Z,1.88
2018-09-30T01:38:17.059Z,1.85
2018-09-30T01:39:16.383Z,1.79
2018-09-30T01:40:16.656Z,1.72
2018-09-30T01:41:16.697Z,1.72
2018-09-30T01:42:16.971Z,1.67
2018-09-30T01:43:16.238Z,1.67
2018-09-30T01:44:16.520Z,1.65
2018-09-30T01:45:16.795Z,1.67
2018-09-30T01:46:17.337Z,1.65
2018-09-30T01:47:16.615Z,1.64
2018-09-30T01:48:16.890Z,1.61
2018-09-30T01:49:17.162Z,1.60
2018-09-30T01:50:16.443Z,1.61
2018-09-30T01:51:16.492Z,1.58
2018-09-30T01:52:17.028Z,1.60
2018-09-30T01:53:16.298Z,1.57
2018-09-30T01:54:16.562Z,1.62
2018-09-30T01:55:16.834Z,1.64
2018-09-30T01:56:17.101Z,1.64
2018-09-30T01:57:16.366Z,1.60
2018-09-30T01:58:16.626Z,1.58
2018-09-30T01:59:16.900Z,1.60
2018-09-30T02:00:17.178Z,1.60
2018-09-30T02:01:16.223Z,1.55
2018-09-30T02:02:16.506Z,1.60
2018-09-30T02:03:16.774Z,1.60
2018-09-30T02:04:17.044Z,1.60
2018-09-30T02:05:16.316Z,1.58
2018-09-30T02:06:16.585Z,1.57
2018-09-30T02:07:16.862Z,1.57
2018-09-30T02:08:17.132Z,1.55
2018-09-30T02:09:16.399Z,1.53
2018-09-30T02:10:16.666Z,1.50
2018-09-30T02:11:16.718Z,1.50
2018-09-30T02:12:16.998Z,1.47
2018-09-30T02:13:16.270Z,1.43
2018-09-30T02:14:16.541Z,1.46
2018-09-30T02:15:17.010Z,1.44
2018-09-30T02:16:16.283Z,1.44
2018-09-30T02:17:16.551Z,1.40
2018-09-30T02:18:16.821Z,1.40
2018-09-30T02:19:17.102Z,1.41
2018-09-30T02:20:16.374Z,1.44
2018-09-30T02:21:16.434Z,1.43
2018-09-30T02:22:16.696Z,1.39
2018-09-30T02:23:16.972Z,1.39
2018-09-30T02:24:16.244Z,1.37
2018-09-30T02:25:16.518Z,1.33
2018-09-30T02:26:16.783Z,1.24
2018-09-30T02:27:17.056Z,1.19
2018-09-30T02:28:16.331Z,1.18
2018-09-30T02:29:16.615Z,1.15
2018-09-30T02:30:16.893Z,1.10
2018-09-30T02:31:16.941Z,1.12
2018-09-30T02:32:16.211Z,1.12
2018-09-30T02:33:16.497Z,1.06
2018-09-30T02:34:16.777Z,1.03
2018-09-30T02:35:17.080Z,0.92
2018-09-30T02:36:16.360Z,0.91
2018-09-30T02:37:16.634Z,0.91
2018-09-30T02:38:17.222Z,0.91
2018-09-30T02:39:16.503Z,0.93
2018-09-30T02:40:16.781Z,0.93
2018-09-30T02:41:16.850Z,0.89
2018-09-30T02:42:17.126Z,0.89
2018-09-30T02:43:16.395Z,0.86
2018-09-30T02:44:16.669Z,0.83
2018-09-30T02:45:16.949Z,0.82
2018-09-30T02:46:16.230Z,0.78
2018-09-30T02:47:16.515Z,0.81
2018-09-30T02:48:16.792Z,0.81
2018-09-30T02:49:17.055Z,0.79
2018-09-30T02:50:16.319Z,0.81
2018-09-30T02:51:16.390Z,0.83
2018-09-30T02:52:16.649Z,0.88
2018-09-30T02:53:16.916Z,0.96
2018-09-30T02:54:17.190Z,0.95
2018-09-30T02:55:16.483Z,0.92
2018-09-30T02:56:16.760Z,0.91
2018-09-30T02:57:17.035Z,0.92
2018-09-30T02:58:16.316Z,0.91
2018-09-30T02:59:16.593Z,0.89
2018-09-30T03:00:16.881Z,0.88
2018-09-30T03:01:16.917Z,0.88
2018-09-30T03:02:17.201Z,0.86
2018-09-30T03:03:16.490Z,0.81
2018-09-30T03:04:16.760Z,0.83
2018-09-30T03:05:17.038Z,0.82
2018-09-30T03:06:16.307Z,0.81
2018-09-30T03:07:16.588Z,0.81
2018-09-30T03:08:16.877Z,0.79
2018-09-30T03:09:17.503Z,0.78
2018-09-30T03:10:16.789Z,0.79
2018-09-30T03:11:16.849Z,0.78
2018-09-30T03:12:17.127Z,0.75
2018-09-30T03:13:16.412Z,0.78
2018-09-30T03:14:16.683Z,0.75
2018-09-30T03:15:16.972Z,0.72
2018-09-30T03:16:16.259Z,0.72
2018-09-30T03:17:16.531Z,0.72
2018-09-30T03:18:16.812Z,0.69
2018-09-30T03:19:17.080Z,0.67
2018-09-30T03:20:16.384Z,0.67
2018-09-30T03:21:16.424Z,0.68
2018-09-30T03:22:16.689Z,0.68
2018-09-30T03:23:16.964Z,0.68
2018-09-30T03:24:16.249Z,0.65
2018-09-30T03:25:16.520Z,0.61
2018-09-30T03:26:16.796Z,0.60
2018-09-30T03:27:17.069Z,0.58
2018-09-30T03:28:16.343Z,0.54
2018-09-30T03:29:16.609Z,0.53
2018-09-30T03:30:16.894Z,0.53
2018-09-30T03:31:16.949Z,0.51
2018-09-30T03:32:16.219Z,0.50
2018-09-30T03:33:16.497Z,0.48
2018-09-30T03:34:16.773Z,0.50
2018-09-30T03:35:17.052Z,0.48
2018-09-30T03:36:16.501Z,0.45
2018-09-30T03:37:16.774Z,0.45
2018-09-30T03:38:17.065Z,0.44
2018-09-30T03:39:16.334Z,0.44
2018-09-30T03:40:16.618Z,0.44
2018-09-30T03:41:16.661Z,0.44
2018-09-30T03:42:16.951Z,0.41
2018-09-30T03:43:16.222Z,0.40
2018-09-30T03:44:16.503Z,0.37
2018-09-30T03:45:16.774Z,0.36
2018-09-30T03:46:17.045Z,0.32
2018-09-30T03:47:16.316Z,0.33
2018-09-30T03:48:16.593Z,0.33
2018-09-30T03:49:16.879Z,0.32
2018-09-30T03:50:17.157Z,0.30
2018-09-30T03:51:17.205Z,0.30
2018-09-30T03:52:16.474Z,0.30
2018-09-30T03:53:16.751Z,0.29
2018-09-30T03:54:17.022Z,0.30
2018-09-30T03:55:16.296Z,0.29
2018-09-30T03:56:16.577Z,0.27
2018-09-30T03:57:16.852Z,0.26
2018-09-30T03:58:17.130Z,0.26
2018-09-30T03:59:16.395Z,0.27
2018-09-30T04:00:16.666Z,0.24
2018-09-30T04:01:16.731Z,0.33
2018-09-30T04:02:17.021Z,0.30
2018-09-30T04:03:16.305Z,0.34
2018-09-30T04:04:16.880Z,0.33
2018-09-30T04:05:17.485Z,0.32
2018-09-30T04:06:16.760Z,0.36
2018-09-30T04:07:17.038Z,0.37
2018-09-30T04:08:16.312Z,0.37
2018-09-30T04:09:16.595Z,0.37
2018-09-30T04:10:16.889Z,0.40
2018-09-30T04:11:16.916Z,0.40
2018-09-30T04:12:17.191Z,0.36
2018-09-30T04:13:16.454Z,0.40
2018-09-30T04:14:16.741Z,0.36
2018-09-30T04:15:17.013Z,0.34
2018-09-30T04:16:16.446Z,0.36
2018-09-30T04:17:16.784Z,0.33
2018-09-30T04:18:17.113Z,0.34
2018-09-30T04:19:16.374Z,0.36
2018-09-30T04:20:16.650Z,0.37
2018-09-30T04:21:16.699Z,0.37
2018-09-30T04:22:16.974Z,0.36
2018-09-30T04:23:16.251Z,0.34
2018-09-30T04:24:16.531Z,0.33
2018-09-30T04:25:16.812Z,0.33
2018-09-30T04:26:17.379Z,0.30
2018-09-30T04:27:16.658Z,0.30
2018-09-30T04:28:16.946Z,0.30
2018-09-30T04:29:16.223Z,0.29
2018-09-30T04:30:16.514Z,0.29
2018-09-30T04:31:16.549Z,0.29
2018-09-30T04:32:16.822Z,0.29
2018-09-30T04:33:17.201Z,0.27
2018-09-30T04:34:16.599Z,0.30
2018-09-30T04:35:16.876Z,0.27
2018-09-30T04:36:17.176Z,0.24
2018-09-30T04:37:16.442Z,0.24
2018-09-30T04:38:16.712Z,0.23
2018-09-30T04:39:16.988Z,0.24
2018-09-30T04:40:16.286Z,0.24
2018-09-30T04:41:16.345Z,0.23
2018-09-30T04:42:16.629Z,0.26
2018-09-30T04:43:16.902Z,0.23
2018-09-30T04:44:17.173Z,0.23
2018-09-30T04:45:16.445Z,0.19
2018-09-30T04:46:16.706Z,0.16
2018-09-30T04:47:16.968Z,0.15
2018-09-30T04:48:16.241Z,0.19
2018-09-30T04:49:16.518Z,0.15
2018-09-30T04:50:16.790Z,0.13
2018-09-30T04:51:16.846Z,0.13
2018-09-30T04:52:17.241Z,0.13
2018-09-30T04:53:16.521Z,0.10
2018-09-30T04:54:16.800Z,0.13
2018-09-30T04:55:17.072Z,0.10
2018-09-30T04:56:16.393Z,0.10
2018-09-30T04:57:16.667Z,0.12
2018-09-30T04:58:16.944Z,0.09
2018-09-30T04:59:16.220Z,0.09
2018-09-30T05:00:16.500Z,0.08
2018-09-30T05:01:16.550Z,0.06
2018-09-30T05:02:16.823Z,0.09
2018-09-30T05:03:17.086Z,0.16
2018-09-30T05:04:16.356Z,0.16
2018-09-30T05:05:16.692Z,0.12
2018-09-30T05:06:16.978Z,0.13
2018-09-30T05:07:16.251Z,0.10
2018-09-30T05:08:16.519Z,0.15
2018-09-30T05:09:16.789Z,0.13
2018-09-30T05:10:17.061Z,0.15
2018-09-30T05:11:17.121Z,0.15
2018-09-30T05:12:16.392Z,0.17
2018-09-30T05:13:16.671Z,0.19
2018-09-30T05:14:16.933Z,0.19
2018-09-30T05:15:17.208Z,0.22
2018-09-30T05:16:16.507Z,0.24
2018-09-30T05:17:16.850Z,0.24
2018-09-30T05:18:17.124Z,0.24
2018-09-30T05:19:16.392Z,0.26
2018-09-30T05:20:16.692Z,0.24
2018-09-30T05:21:16.717Z,0.23
2018-09-30T05:22:16.993Z,0.26
2018-09-30T05:23:16.259Z,0.27
2018-09-30T05:24:16.535Z,0.27
2018-09-30T05:25:16.859Z,0.24
2018-09-30T05:26:17.127Z,0.29
2018-09-30T05:27:16.404Z,0.24
2018-09-30T05:28:16.673Z,0.26
2018-09-30T05:29:16.944Z,0.22
2018-09-30T05:30:16.243Z,0.24
2018-09-30T05:31:16.307Z,0.24
2018-09-30T05:32:16.613Z,0.27
2018-09-30T05:33:16.900Z,0.30
2018-09-30T05:34:17.433Z,0.30
2018-09-30T05:35:16.730Z,0.24
2018-09-30T05:36:17.036Z,0.24
2018-09-30T05:37:16.377Z,0.26
2018-09-30T05:38:16.885Z,0.22
2018-09-30T05:39:17.156Z,0.24
2018-09-30T05:40:16.433Z,0.29
2018-09-30T05:41:16.505Z,0.30
2018-09-30T05:42:16.769Z,0.36
2018-09-30T05:43:17.044Z,0.37
2018-09-30T05:44:16.315Z,0.43
2018-09-30T05:45:16.871Z,0.47
2018-09-30T05:46:17.135Z,0.44
2018-09-30T05:47:16.405Z,0.47
2018-09-30T05:48:16.670Z,0.45
2018-09-30T05:49:17.031Z,0.45
2018-09-30T05:50:16.454Z,0.45
2018-09-30T05:51:16.525Z,0.44
2018-09-30T05:52:16.798Z,0.44
2018-09-30T05:53:17.082Z,0.44
2018-09-30T05:54:16.350Z,0.47
2018-09-30T05:55:16.629Z,0.48
2018-09-30T05:56:16.899Z,0.51
2018-09-30T05:57:17.164Z,0.51
2018-09-30T05:58:16.440Z,0.50
2018-09-30T05:59:16.711Z,0.53
2018-09-30T06:00:16.994Z,0.54
2018-09-30T06:01:17.020Z,0.60
2018-09-30T06:02:16.284Z,0.60
2018-09-30T06:03:16.562Z,0.63
2018-09-30T06:04:16.845Z,0.63
2018-09-30T06:05:17.111Z,0.63
2018-09-30T06:06:16.379Z,0.67
2018-09-30T06:07:16.646Z,0.68
2018-09-30T06:08:16.910Z,0.75
2018-09-30T06:09:17.206Z,0.78
2018-09-30T06:10:16.532Z,0.83
2018-09-30T06:11:16.582Z,0.92
2018-09-30T06:12:16.857Z,0.92
2018-09-30T06:13:17.134Z,0.96
2018-09-30T06:14:16.587Z,0.99
2018-09-30T06:15:16.337Z,1.00
2018-09-30T06:16:16.626Z,0.98
2018-09-30T06:17:16.898Z,0.98
2018-09-30T06:18:17.168Z,1.02
2018-09-30T06:19:16.455Z,1.10
2018-09-30T06:20:16.741Z,1.09
2018-09-30T06:21:16.780Z,1.04
2018-09-30T06:22:17.040Z,1.09
2018-09-30T06:23:16.316Z,1.10
2018-09-30T06:24:16.682Z,1.12
2018-09-30T06:25:16.227Z,1.16
2018-09-30T06:26:16.511Z,1.16
2018-09-30T06:27:16.782Z,1.20
2018-09-30T06:28:17.050Z,1.26
2018-09-30T06:29:16.310Z,1.24
2018-09-30T06:30:16.586Z,1.29
2018-09-30T06:31:16.627Z,1.26
2018-09-30T06:32:16.901Z,1.27
2018-09-30T06:33:17.169Z,1.36
2018-09-30T06:34:16.440Z,1.39
2018-09-30T06:35:16.703Z,1.46
2018-09-30T06:36:16.976Z,1.58
2018-09-30T06:37:16.502Z,1.58
2018-09-30T06:38:16.807Z,1.61
2018-09-30T06:39:17.078Z,1.62
2018-09-30T06:40:16.372Z,1.64
2018-09-30T06:41:16.375Z,1.69
2018-09-30T06:42:16.659Z,1.69
2018-09-30T06:43:16.927Z,1.75
2018-09-30T06:44:17.205Z,1.78
2018-09-30T06:45:16.541Z,1.79
2018-09-30T06:46:16.895Z,1.82
2018-09-30T06:47:17.434Z,1.95
2018-09-30T06:48:16.709Z,2.00
2018-09-30T06:49:16.977Z,2.13
2018-09-30T06:50:16.261Z,2.50
2018-09-30T06:51:16.289Z,2.64
2018-09-30T06:52:16.559Z,2.58
2018-09-30T06:53:16.823Z,2.63
2018-09-30T06:54:17.097Z,2.67
2018-09-30T06:55:16.367Z,2.67
2018-09-30T06:56:16.636Z,2.67
2018-09-30T06:57:16.906Z,2.91
2018-09-30T06:58:17.171Z,2.98
2018-09-30T06:59:16.438Z,2.99
2018-09-30T07:00:16.727Z,3.03
2018-09-30T07:01:16.784Z,3.10
2018-09-30T07:02:17.082Z,3.19
2018-09-30T07:03:16.352Z,3.24
2018-09-30T07:04:16.624Z,3.33
2018-09-30T07:05:16.894Z,3.27
2018-09-30T07:06:17.170Z,3.40
2018-09-30T07:07:16.438Z,3.44
2018-09-30T07:08:16.701Z,3.49
2018-09-30T07:09:16.978Z,3.41
2018-09-30T07:10:16.261Z,3.43
2018-09-30T07:11:16.308Z,3.53
2018-09-30T07:12:16.578Z,3.60
2018-09-30T07:13:16.848Z,3.69
2018-09-30T07:14:17.122Z,3.69
2018-09-30T07:15:16.394Z,3.74
2018-09-30T07:16:16.656Z,3.89
2018-09-30T07:17:16.929Z,3.93
2018-09-30T07:18:17.205Z,3.96
2018-09-30T07:19:16.492Z,3.96
2018-09-30T07:20:16.769Z,4.14
2018-09-30T07:21:16.822Z,4.26
2018-09-30T07:22:17.156Z,4.28
2018-09-30T07:23:16.596Z,4.26
2018-09-30T07:24:16.868Z,4.26
2018-09-30T07:25:17.150Z,4.53
2018-09-30T07:26:16.420Z,4.51
2018-09-30T07:27:16.697Z,4.46
2018-09-30T07:28:16.957Z,4.61
2018-09-30T07:29:16.238Z,4.68
2018-09-30T07:30:16.520Z,4.72
2018-09-30T07:31:16.565Z,4.81
2018-09-30T07:32:16.837Z,4.82
2018-09-30T07:33:17.108Z,4.91
2018-09-30T07:34:16.392Z,5.13
2018-09-30T07:35:16.684Z,5.19
2018-09-30T07:36:16.943Z,5.58
2018-09-30T07:37:16.207Z,5.54
2018-09-30T07:38:16.485Z,5.64
2018-09-30T07:39:16.760Z,5.57
2018-09-30T07:40:17.099Z,5.50
2018-09-30T07:41:17.134Z,6.02
2018-09-30T07:42:16.397Z,6.17
2018-09-30T07:43:16.665Z,6.17
2018-09-30T07:44:16.936Z,6.29
2018-09-30T07:45:16.211Z,6.17
2018-09-30T07:46:16.493Z,5.96
2018-09-30T07:47:16.758Z,6.33
2018-09-30T07:48:17.027Z,6.78
2018-09-30T07:49:16.302Z,6.91
2018-09-30T07:50:16.589Z,6.96
2018-09-30T07:51:16.641Z,6.95
2018-09-30T07:52:16.905Z,6.96
2018-09-30T07:53:17.185Z,7.33
2018-09-30T07:54:17.199Z,7.23
2018-09-30T07:55:16.472Z,6.96
2018-09-30T07:56:16.734Z,6.98
2018-09-30T07:57:16.994Z,6.96
2018-09-30T07:58:16.263Z,6.92
2018-09-30T07:59:16.541Z,6.98
2018-09-30T08:00:16.818Z,7.37
2018-09-30T08:01:16.874Z,7.37
2018-09-30T08:02:17.158Z,7.43
2018-09-30T08:03:16.433Z,7.44
2018-09-30T08:04:16.697Z,7.51
2018-09-30T08:05:16.966Z,7.48
2018-09-30T08:06:16.296Z,7.55
2018-09-30T08:07:16.622Z,7.30
2018-09-30T08:08:16.889Z,7.27
2018-09-30T08:09:17.152Z,7.45
2018-09-30T08:10:16.431Z,7.61
2018-09-30T08:11:16.486Z,7.77
2018-09-30T08:12:16.761Z,7.74
2018-09-30T08:13:17.033Z,7.55
2018-09-30T08:14:16.313Z,7.64
2018-09-30T08:15:16.611Z,7.62
2018-09-30T08:16:16.938Z,7.75
2018-09-30T08:17:16.389Z,7.92
2018-09-30T08:18:16.665Z,8.29
2018-09-30T08:19:16.937Z,8.31
2018-09-30T08:20:17.211Z,8.14
2018-09-30T08:21:16.283Z,8.47
2018-09-30T08:22:16.552Z,8.69
2018-09-30T08:23:16.823Z,8.67
2018-09-30T08:24:17.654Z,8.71
2018-09-30T08:25:17.108Z,8.78
2018-09-30T08:26:16.380Z,8.75
2018-09-30T08:27:16.648Z,8.88
2018-09-30T08:28:16.919Z,9.16
2018-09-30T08:29:17.193Z,9.54
2018-09-30T08:30:16.470Z,9.58
2018-09-30T08:31:16.549Z,9.41
2018-09-30T08:32:16.878Z,9.26
2018-09-30T08:33:17.142Z,9.34
2018-09-30T08:34:16.408Z,9.38
2018-09-30T08:35:16.682Z,9.62
2018-09-30T08:36:16.953Z,9.59
2018-09-30T08:37:16.225Z,9.53
2018-09-30T08:38:16.499Z,9.51
2018-09-30T08:39:16.770Z,9.44
2018-09-30T08:40:17.051Z,9.57
2018-09-30T08:41:17.110Z,9.58
2018-09-30T08:42:16.383Z,9.65
2018-09-30T08:43:16.656Z,9.72
2018-09-30T08:44:16.974Z,9.95
2018-09-30T08:45:16.425Z,9.93
2018-09-30T08:46:16.703Z,9.96
2018-09-30T08:47:17.036Z,10.01
2018-09-30T08:48:16.575Z,10.08
2018-09-30T08:49:16.910Z,10.26
2018-09-30T08:50:16.295Z,10.08
2018-09-30T08:51:16.311Z,10.17
2018-09-30T08:52:16.577Z,10.27
2018-09-30T08:53:16.838Z,10.58
2018-09-30T08:54:17.113Z,10.47
2018-09-30T08:55:16.402Z,10.68
2018-09-30T08:56:16.678Z,10.60
2018-09-30T08:57:16.942Z,10.39
2018-09-30T08:58:16.209Z,10.24
2018-09-30T08:59:16.493Z,10.19
2018-09-30T09:00:16.763Z,10.10
2018-09-30T09:01:16.800Z,10.09
2018-09-30T09:02:17.073Z,10.20
2018-09-30T09:03:16.338Z,10.37
2018-09-30T09:04:16.596Z,10.27
2018-09-30T09:05:16.867Z,10.31
2018-09-30T09:06:17.142Z,10.23
2018-09-30T09:07:16.411Z,10.40
2018-09-30T09:08:16.677Z,10.78
2018-09-30T09:09:16.966Z,10.87
2018-09-30T09:10:16.413Z,10.94
2018-09-30T09:11:16.277Z,10.91
2018-09-30T09:12:16.562Z,11.00
2018-09-30T09:13:16.821Z,10.92
2018-09-30T09:14:17.094Z,10.67
2018-09-30T09:15:16.389Z,10.60
2018-09-30T09:16:16.713Z,10.84
2018-09-30T09:17:16.987Z,10.94
2018-09-30T09:18:16.257Z,11.10
2018-09-30T09:19:16.574Z,10.99
2018-09-30T09:20:16.858Z,11.15
2018-09-30T09:21:16.884Z,11.22
2018-09-30T09:22:17.216Z,11.20
2018-09-30T09:23:16.638Z,11.09
2018-09-30T09:24:16.913Z,11.03
2018-09-30T09:25:17.203Z,10.88
2018-09-30T09:26:16.477Z,10.88
2018-09-30T09:27:16.745Z,10.92
2018-09-30T09:28:17.009Z,11.09
2018-09-30T09:29:16.286Z,11.44
2018-09-30T09:30:16.570Z,11.46
2018-09-30T09:31:16.621Z,11.51
2018-09-30T09:32:16.885Z,11.54
2018-09-30T09:33:17.149Z,11.61
2018-09-30T09:34:16.429Z,11.84
2018-09-30T09:35:16.714Z,11.71
2018-09-30T09:36:16.991Z,11.60
2018-09-30T09:37:16.273Z,11.31
2018-09-30T09:38:16.552Z,11.22
2018-09-30T09:39:16.902Z,11.23
2018-09-30T09:40:17.177Z,11.40
2018-09-30T09:41:16.232Z,11.47
2018-09-30T09:42:16.509Z,11.70
2018-09-30T09:43:16.783Z,11.57
2018-09-30T09:44:17.059Z,11.43
2018-09-30T09:45:16.340Z,11.39
2018-09-30T09:46:16.605Z,11.58
2018-09-30T09:47:16.882Z,11.58
2018-09-30T09:48:17.152Z,11.81
2018-09-30T09:49:16.420Z,11.72
2018-09-30T09:50:16.693Z,12.39
2018-09-30T09:51:16.745Z,12.50
2018-09-30T09:52:17.014Z,12.41
2018-09-30T09:53:16.283Z,12.53
2018-09-30T09:54:16.548Z,12.20
2018-09-30T09:55:16.816Z,12.18
2018-09-30T09:56:17.093Z,12.05
2018-09-30T09:57:16.362Z,11.98
2018-09-30T09:58:16.637Z,12.18
2018-09-30T09:59:17.011Z,12.25
2018-09-30T10:00:16.682Z,12.23
2018-09-30T10:01:16.776Z,12.09
2018-09-30T10:02:17.073Z,12.06
2018-09-30T10:03:16.340Z,11.99
2018-09-30T10:04:16.607Z,11.99
2018-09-30T10:05:16.938Z,12.01
2018-09-30T10:06:16.368Z,12.03
2018-09-30T10:07:16.643Z,12.19
2018-09-30T10:08:16.992Z,12.12
2018-09-30T10:09:16.422Z,12.12
2018-09-30T10:10:16.696Z,12.22
2018-09-30T10:11:16.749Z,12.20
2018-09-30T10:12:17.020Z,12.60
2018-09-30T10:13:16.392Z,12.71
2018-09-30T10:14:16.858Z,12.50
2018-09-30T10:15:17.136Z,12.37
2018-09-30T10:16:16.426Z,12.66
2018-09-30T10:17:16.707Z,12.66
2018-09-30T10:18:16.992Z,12.74
2018-09-30T10:19:16.273Z,13.12
2018-09-30T10:20:16.556Z,13.22
2018-09-30T10:21:16.611Z,13.12
2018-09-30T10:22:16.878Z,12.67
2018-09-30T10:23:17.160Z,12.75
2018-09-30T10:24:16.431Z,12.99
2018-09-30T10:25:16.694Z,13.18
2018-09-30T10:26:16.968Z,13.16
2018-09-30T10:27:16.247Z,13.16
2018-09-30T10:28:16.522Z,13.27
2018-09-30T10:29:16.796Z,13.36
2018-09-30T10:30:17.082Z,13.34
2018-09-30T10:31:17.127Z,13.26
2018-09-30T10:32:16.395Z,13.18
2018-09-30T10:33:16.695Z,13.53
2018-09-30T10:34:16.960Z,13.70
2018-09-30T10:35:16.231Z,13.77
2018-09-30T10:36:16.503Z,13.82
2018-09-30T10:37:16.778Z,13.88
2018-09-30T10:38:17.064Z,13.88
2018-09-30T10:39:16.556Z,13.65
2018-09-30T10:40:16.396Z,13.64
2018-09-30T10:41:16.411Z,13.76
2018-09-30T10:42:16.681Z,13.78
2018-09-30T10:43:16.950Z,13.81
2018-09-30T10:44:16.222Z,13.82
2018-09-30T10:45:16.502Z,13.97
2018-09-30T10:46:16.771Z,14.02
2018-09-30T10:47:17.039Z,13.81
2018-09-30T10:48:16.335Z,13.82
2018-09-30T10:49:16.681Z,13.73
2018-09-30T10:50:16.961Z,13.57
2018-09-30T10:51:17.007Z,13.67
2018-09-30T10:52:16.288Z,14.01
2018-09-30T10:53:16.575Z,14.16
2018-09-30T10:54:16.846Z,14.30
2018-09-30T10:55:17.139Z,14.19
2018-09-30T10:56:16.542Z,14.00
2018-09-30T10:57:16.814Z,13.84
2018-09-30T10:58:17.097Z,13.70
2018-09-30T10:59:16.372Z,13.73
2018-09-30T11:00:16.664Z,13.73
2018-09-30T11:01:16.700Z,13.78
2018-09-30T11:02:16.969Z,13.55
2018-09-30T11:03:16.291Z,13.58
2018-09-30T11:04:16.566Z,13.76
2018-09-30T11:05:16.834Z,14.11
2018-09-30T11:06:17.103Z,14.26
2018-09-30T11:07:16.375Z,14.46
2018-09-30T11:08:16.637Z,14.60
2018-09-30T11:09:16.907Z,14.20
2018-09-30T11:10:17.183Z,14.26
2018-09-30T11:11:16.241Z,14.40
2018-09-30T11:12:16.535Z,14.44
2018-09-30T11:13:16.806Z,14.40
2018-09-30T11:14:17.077Z,14.29
2018-09-30T11:15:16.351Z,14.43
2018-09-30T11:16:16.625Z,14.77
2018-09-30T11:17:16.897Z,15.01
2018-09-30T11:18:17.435Z,14.84
2018-09-30T11:19:16.715Z,14.70
2018-09-30T11:20:16.997Z,15.31
2018-09-30T11:21:17.030Z,15.26
2018-09-30T11:22:16.306Z,15.15
2018-09-30T11:23:16.572Z,14.99
2018-09-30T11:24:16.843Z,14.88
2018-09-30T11:25:17.120Z,14.85
2018-09-30T11:26:16.395Z,14.67
2018-09-30T11:27:16.678Z,14.68
2018-09-30T11:28:16.964Z,14.66
2018-09-30T11:29:16.230Z,14.70
2018-09-30T11:30:16.524Z,14.84
2018-09-30T11:31:16.564Z,15.11
2018-09-30T11:32:16.847Z,14.94
2018-09-30T11:33:17.120Z,14.87
2018-09-30T11:34:16.395Z,14.83
2018-09-30T11:35:16.657Z,14.88
2018-09-30T11:36:16.921Z,14.67
2018-09-30T11:37:17.205Z,15.02
2018-09-30T11:38:16.473Z,15.05
2018-09-30T11:39:16.737Z,15.08
2018-09-30T11:40:17.019Z,14.81
2018-09-30T11:41:17.067Z,15.42
2018-09-30T11:42:16.335Z,15.29
2018-09-30T11:43:16.616Z,15.11
2018-09-30T11:44:16.878Z,14.99
2018-09-30T11:45:17.176Z,14.99
2018-09-30T11:46:16.439Z,15.15
2018-09-30T11:47:16.731Z,15.15
2018-09-30T11:48:16.999Z,15.04
2018-09-30T11:49:16.396Z,15.01
2018-09-30T11:50:16.682Z,14.94
2018-09-30T11:51:16.719Z,15.08
2018-09-30T11:52:16.988Z,15.11
2018-09-30T11:53:16.252Z,15.12
2018-09-30T11:54:16.523Z,15.15
2018-09-30T11:55:16.801Z,15.21
2018-09-30T11:56:17.073Z,15.29
2018-09-30T11:57:16.350Z,15.62
2018-09-30T11:58:16.618Z,15.54
2018-09-30T11:59:16.885Z,15.39
2018-09-30T12:00:17.181Z,15.52
2018-09-30T12:01:16.254Z,15.36
2018-09-30T12:02:16.702Z,15.54
2018-09-30T12:03:17.137Z,15.76
2018-09-30T12:04:16.403Z,15.88
2018-09-30T12:05:16.673Z,15.73
2018-09-30T12:06:16.938Z,15.62
2018-09-30T12:07:17.207Z,15.60
2018-09-30T12:08:16.501Z,15.59
2018-09-30T12:09:16.778Z,15.49
2018-09-30T12:10:17.046Z,15.95
2018-09-30T12:11:17.117Z,16.01
2018-09-30T12:12:16.389Z,15.71
2018-09-30T12:13:16.666Z,15.81
2018-09-30T12:14:16.940Z,15.74
2018-09-30T12:15:17.216Z,15.62
2018-09-30T12:16:16.485Z,15.60
2018-09-30T12:17:16.762Z,15.73
2018-09-30T12:18:17.144Z,15.87
2018-09-30T12:19:16.405Z,15.95
2018-09-30T12:20:16.696Z,16.00
2018-09-30T12:21:16.718Z,15.95
2018-09-30T12:22:16.990Z,16.21
2018-09-30T12:23:16.256Z,16.04
2018-09-30T12:24:16.530Z,15.80
2018-09-30T12:25:16.814Z,15.77
2018-09-30T12:26:17.096Z,15.90
2018-09-30T12:27:16.370Z,16.00
2018-09-30T12:28:16.648Z,15.78
2018-09-30T12:29:16.918Z,15.87
2018-09-30T12:30:17.181Z,15.84
2018-09-30T12:31:16.251Z,16.17
2018-09-30T12:32:16.532Z,16.08
2018-09-30T12:33:16.802Z,16.04
2018-09-30T12:34:17.085Z,16.21
2018-09-30T12:35:16.362Z,16.43
2018-09-30T12:36:16.638Z,16.55
2018-09-30T12:37:16.920Z,16.35
2018-09-30T12:38:17.197Z,16.24
2018-09-30T12:39:16.512Z,16.14
2018-09-30T12:40:16.991Z,16.05
2018-09-30T12:41:17.043Z,16.11
2018-09-30T12:42:16.320Z,16.08
2018-09-30T12:43:16.590Z,16.01
2018-09-30T12:44:16.866Z,15.94
2018-09-30T12:45:17.137Z,15.92
2018-09-30T12:46:16.414Z,15.95
2018-09-30T12:47:16.693Z,16.00
2018-09-30T12:48:16.958Z,16.29
2018-09-30T12:49:16.233Z,16.33
2018-09-30T12:50:16.516Z,16.78
2018-09-30T12:51:16.775Z,16.57
2018-09-30T12:52:17.044Z,16.32
2018-09-30T12:53:16.310Z,16.81
2018-09-30T12:54:16.582Z,16.88
2018-09-30T12:55:16.855Z,16.67
2018-09-30T12:56:17.125Z,16.57
2018-09-30T12:57:16.398Z,16.49
2018-09-30T12:58:16.670Z,16.46
2018-09-30T12:59:16.948Z,16.76
2018-09-30T13:00:16.230Z,16.76
2018-09-30T13:01:16.285Z,16.57
2018-09-30T13:02:16.560Z,16.64
2018-09-30T13:03:16.831Z,16.73
2018-09-30T13:04:17.102Z,16.73
2018-09-30T13:05:16.385Z,16.86
2018-09-30T13:06:16.658Z,16.68
2018-09-30T13:07:16.937Z,16.56
2018-09-30T13:08:16.220Z,16.53
2018-09-30T13:09:16.499Z,16.55